createdAt,value
2023-06-25T00:00:15.316Z,100.00
2023-06-25T00:02:51.344Z,100.00
2023-06-25T00:05:20.052Z,100.00
2023-06-25T00:07:49.189Z,100.00
2023-06-25T00:10:17.908Z,100.00
2023-06-25T00:12:46.617Z,100.00
2023-06-25T00:15:15.356Z,100.00
2023-06-25T00:17:48.734Z,100.00
2023-06-25T00:20:19.422Z,100.00
2023-06-25T00:23:05.519Z,100.00
2023-06-25T00:25:35.343Z,100.00
2023-06-25T00:28:09.167Z,100.00
2023-06-25T00:30:38.553Z,100.00
2023-06-25T00:33:07.822Z,100.00
2023-06-25T00:36:08.272Z,100.00
2023-06-25T00:38:40.221Z,100.00
2023-06-25T00:41:10.766Z,100.00
2023-06-25T00:43:43.431Z,100.00
2023-06-25T00:46:17.773Z,100.00
2023-06-25T00:48:49.228Z,100.00
2023-06-25T00:51:22.852Z,100.00
2023-06-25T00:53:52.052Z,100.00
2023-06-25T00:56:28.926Z,100.00
2023-06-25T00:59:01.798Z,100.00
2023-06-25T01:01:41.600Z,100.00
2023-06-25T01:04:24.093Z,100.00
2023-06-25T01:07:02.802Z,100.00
2023-06-25T01:09:34.062Z,100.00
2023-06-25T01:12:04.714Z,100.00
2023-06-25T01:14:34.812Z,100.00
2023-06-25T01:17:06.508Z,100.00
2023-06-25T01:19:36.403Z,100.00
2023-06-25T01:22:07.910Z,100.00
2023-06-25T01:24:38.700Z,100.00
2023-06-25T01:27:07.828Z,100.00
2023-06-25T01:29:36.570Z,100.00
2023-06-25T01:32:07.532Z,100.00
2023-06-25T01:34:36.422Z,100.00
2023-06-25T01:37:07.680Z,100.00
2023-06-25T01:39:36.418Z,100.00
2023-06-25T01:42:11.608Z,100.00
2023-06-25T01:44:41.620Z,100.00
2023-06-25T01:47:10.816Z,100.00
2023-06-25T01:49:39.724Z,100.00
2023-06-25T01:52:09.683Z,100.00
2023-06-25T01:54:39.215Z,100.00
2023-06-25T01:57:09.695Z,100.00
2023-06-25T01:59:38.887Z,100.00
2023-06-25T02:02:08.020Z,100.00
2023-06-25T02:04:36.853Z,100.00
2023-06-25T02:07:07.708Z,100.00
2023-06-25T02:09:40.123Z,100.00
2023-06-25T02:12:12.140Z,100.00
2023-06-25T02:14:40.836Z,100.00
2023-06-25T02:17:09.712Z,100.00
2023-06-25T02:19:39.117Z,100.00
2023-06-25T02:22:07.983Z,100.00
2023-06-25T02:24:36.621Z,100.00
2023-06-25T02:27:06.002Z,100.00
2023-06-25T02:29:37.648Z,100.00
2023-06-25T02:32:07.684Z,100.00
2023-06-25T02:34:37.529Z,100.00
2023-06-25T02:37:15.645Z,100.00
2023-06-25T02:39:45.767Z,100.00
2023-06-25T02:42:14.426Z,100.00
2023-06-25T02:44:44.661Z,100.00
2023-06-25T02:47:13.367Z,100.00
2023-06-25T02:49:42.934Z,100.00
2023-06-25T02:52:11.570Z,100.00
2023-06-25T02:54:40.280Z,100.00
2023-06-25T02:57:08.954Z,100.00
2023-06-25T02:59:38.217Z,100.00
2023-06-25T03:02:10.730Z,100.00
2023-06-25T03:04:41.030Z,100.00
2023-06-25T03:07:10.024Z,100.00
2023-06-25T03:09:39.378Z,100.00
2023-06-25T03:12:10.692Z,100.00
2023-06-25T03:14:40.014Z,100.00
2023-06-25T03:17:10.784Z,100.00
2023-06-25T03:19:40.854Z,100.00
2023-06-25T03:22:09.497Z,100.00
2023-06-25T03:24:41.642Z,100.00
2023-06-25T03:27:10.283Z,100.00
2023-06-25T03:29:40.218Z,100.00
2023-06-25T03:32:12.264Z,100.00
2023-06-25T03:34:44.477Z,100.00
2023-06-25T03:37:13.156Z,100.00
2023-06-25T03:39:42.566Z,100.00
2023-06-25T03:42:12.089Z,100.00
2023-06-25T03:44:48.899Z,100.00
2023-06-25T03:47:23.193Z,100.00
2023-06-25T03:49:53.905Z,100.00
2023-06-25T03:52:24.871Z,100.00
2023-06-25T03:54:53.755Z,100.00
2023-06-25T03:57:23.667Z,100.00
2023-06-25T03:59:53.266Z,100.00
2023-06-25T04:02:24.445Z,100.00
2023-06-25T04:04:53.265Z,100.00
2023-06-25T04:07:22.374Z,100.00
2023-06-25T04:09:51.364Z,100.00
2023-06-25T04:12:21.010Z,100.00
2023-06-25T04:14:50.898Z,100.00
2023-06-25T04:17:20.093Z,100.00
2023-06-25T04:19:50.520Z,100.00
2023-06-25T04:22:19.652Z,100.00
2023-06-25T04:24:48.582Z,100.00
2023-06-25T04:27:17.812Z,100.00
2023-06-25T04:29:46.529Z,100.00
2023-06-25T04:32:15.760Z,100.00
2023-06-25T04:34:44.471Z,100.00
2023-06-25T04:37:15.472Z,100.00
2023-06-25T04:39:44.289Z,100.00
2023-06-25T04:42:14.068Z,100.00
2023-06-25T04:44:42.965Z,100.00
2023-06-25T04:47:14.178Z,100.00
2023-06-25T04:49:47.000Z,100.00
2023-06-25T04:52:20.115Z,100.00
2023-06-25T04:54:48.910Z,100.00
2023-06-25T04:57:17.741Z,100.00
2023-06-25T04:59:46.359Z,100.00
2023-06-25T05:02:15.010Z,100.00
2023-06-25T05:04:46.569Z,100.00
2023-06-25T05:07:18.473Z,100.00
2023-06-25T05:09:47.373Z,100.00
2023-06-25T05:12:18.496Z,100.00
2023-06-25T05:14:49.393Z,100.00
2023-06-25T05:17:18.102Z,100.00
2023-06-25T05:19:47.606Z,100.00
2023-06-25T05:22:17.755Z,100.00
2023-06-25T05:24:46.788Z,100.00
2023-06-25T05:27:16.552Z,100.00
2023-06-25T05:29:45.183Z,100.00
2023-06-25T05:32:14.147Z,100.00
2023-06-25T05:34:42.997Z,100.00
2023-06-25T05:37:11.716Z,100.00
2023-06-25T05:39:42.041Z,100.00
2023-06-25T05:42:10.744Z,100.00
2023-06-25T05:44:39.681Z,100.00
2023-06-25T05:47:08.713Z,100.00
2023-06-25T05:49:37.444Z,100.00
2023-06-25T05:52:09.017Z,100.00
2023-06-25T05:54:37.793Z,100.00
2023-06-25T05:57:12.322Z,100.00
2023-06-25T05:59:41.860Z,100.00
2023-06-25T06:02:11.773Z,100.00
2023-06-25T06:04:40.460Z,100.00
2023-06-25T06:07:09.094Z,100.00
2023-06-25T06:09:38.055Z,100.00
2023-06-25T06:12:09.877Z,100.00
2023-06-25T06:14:39.423Z,100.00
2023-06-25T06:17:08.580Z,100.00
2023-06-25T06:19:37.307Z,100.00
2023-06-25T06:22:06.752Z,100.00
2023-06-25T06:24:35.380Z,100.00
2023-06-25T06:27:04.056Z,100.00
2023-06-25T06:29:34.072Z,100.00
2023-06-25T06:32:02.672Z,100.00
2023-06-25T06:34:31.275Z,100.00
2023-06-25T06:36:59.963Z,100.00
2023-06-25T06:39:28.717Z,100.00
2023-06-25T06:41:57.407Z,100.00
2023-06-25T06:44:27.167Z,100.00
2023-06-25T06:46:57.146Z,100.00
2023-06-25T06:49:25.878Z,100.00
2023-06-25T06:51:54.668Z,100.00
2023-06-25T06:54:23.342Z,100.00
2023-06-25T06:56:51.953Z,100.00
2023-06-25T06:59:20.605Z,100.00
2023-06-25T07:01:49.299Z,100.00
2023-06-25T07:04:19.372Z,100.00
2023-06-25T07:06:48.091Z,100.00
2023-06-25T07:09:16.894Z,100.00
2023-06-25T07:11:45.485Z,100.00
2023-06-25T07:14:14.200Z,100.00
2023-06-25T07:16:43.810Z,100.00
2023-06-25T07:19:12.613Z,100.00
2023-06-25T07:21:42.965Z,100.00
2023-06-25T07:24:11.627Z,100.00
2023-06-25T07:26:40.319Z,100.00
2023-06-25T07:29:09.013Z,100.00
2023-06-25T07:31:37.632Z,100.00
2023-06-25T07:34:06.484Z,100.00
2023-06-25T07:36:35.302Z,100.00
2023-06-25T07:39:07.330Z,100.00
2023-06-25T07:41:36.094Z,100.00
2023-06-25T07:44:17.798Z,100.00
2023-06-25T07:46:54.091Z,100.00
2023-06-25T07:49:22.703Z,100.00
2023-06-25T07:51:53.026Z,100.00
2023-06-25T07:54:23.889Z,100.00
2023-06-25T07:56:52.613Z,100.00
2023-06-25T07:59:21.233Z,100.00
2023-06-25T08:01:50.030Z,100.00
2023-06-25T08:04:18.994Z,100.00
2023-06-25T08:06:48.188Z,100.00
2023-06-25T08:09:17.254Z,99.31
2023-06-25T08:11:47.368Z,93.81
2023-06-25T08:14:16.159Z,85.77
2023-06-25T08:16:45.046Z,81.65
2023-06-25T08:19:14.019Z,95.11
2023-06-25T08:21:42.867Z,81.67
2023-06-25T08:24:11.514Z,78.54
2023-06-25T08:26:40.166Z,70.55
2023-06-25T08:29:10.462Z,77.64
2023-06-25T08:31:39.202Z,67.38
2023-06-25T08:34:08.019Z,68.74
2023-06-25T08:36:37.513Z,65.24
2023-06-25T08:39:06.271Z,69.36
2023-06-25T08:41:35.896Z,69.24
2023-06-25T08:44:05.294Z,62.21
2023-06-25T08:46:38.127Z,65.82
2023-06-25T08:49:07.702Z,60.38
2023-06-25T08:51:38.721Z,60.65
2023-06-25T08:54:08.740Z,58.37
2023-06-25T08:56:37.504Z,52.27
2023-06-25T08:59:06.208Z,52.31
2023-06-25T09:01:36.426Z,51.25
2023-06-25T09:04:05.230Z,55.33
2023-06-25T09:06:54.727Z,53.29
2023-06-25T09:09:30.106Z,55.64
2023-06-25T09:11:58.807Z,51.26
2023-06-25T09:14:27.711Z,51.07
2023-06-25T09:16:58.109Z,49.49
2023-06-25T09:19:27.061Z,47.91
2023-06-25T09:21:55.771Z,45.80
2023-06-25T09:24:24.956Z,45.34
2023-06-25T09:26:55.798Z,46.25
2023-06-25T09:29:25.298Z,46.67
2023-06-25T09:31:53.919Z,45.84
2023-06-25T09:34:26.205Z,47.06
2023-06-25T09:36:54.922Z,42.91
2023-06-25T09:39:23.628Z,43.59
2023-06-25T09:41:53.918Z,42.34
2023-06-25T09:44:25.647Z,40.75
2023-06-25T09:47:02.370Z,42.76
2023-06-25T09:49:34.557Z,43.00
2023-06-25T09:52:11.105Z,44.24
2023-06-25T09:54:43.480Z,43.64
2023-06-25T09:57:16.476Z,45.20
2023-06-25T09:59:45.219Z,38.74
2023-06-25T10:02:16.672Z,40.42
2023-06-25T10:04:47.301Z,41.67
2023-06-25T10:07:16.147Z,49.23
2023-06-25T10:09:54.484Z,44.72
2023-06-25T10:12:23.494Z,46.27
2023-06-25T10:14:52.396Z,47.04
2023-06-25T10:17:25.238Z,46.47
2023-06-25T10:19:59.807Z,42.89
2023-06-25T10:22:29.900Z,41.04
2023-06-25T10:24:58.847Z,39.69
2023-06-25T10:27:31.767Z,45.44
2023-06-25T10:30:01.425Z,41.94
2023-06-25T10:32:32.046Z,38.74
2023-06-25T10:35:05.138Z,39.14
2023-06-25T10:37:36.451Z,38.06
2023-06-25T10:40:08.472Z,36.88
2023-06-25T10:42:38.852Z,38.89
2023-06-25T10:45:09.252Z,43.19
2023-06-25T10:47:38.291Z,41.34
2023-06-25T10:50:09.796Z,38.23
2023-06-25T10:52:40.221Z,40.47
2023-06-25T10:55:09.957Z,36.67
2023-06-25T10:57:38.648Z,44.13
2023-06-25T11:00:09.680Z,47.12
2023-06-25T11:02:38.586Z,48.81
2023-06-25T11:05:09.924Z,42.94
2023-06-25T11:07:38.769Z,42.43
2023-06-25T11:10:09.851Z,43.23
2023-06-25T11:12:38.467Z,47.73
2023-06-25T11:15:08.331Z,43.54
2023-06-25T11:17:36.975Z,42.93
2023-06-25T11:20:06.693Z,39.57
2023-06-25T11:22:43.897Z,36.52
2023-06-25T11:25:15.028Z,35.30
2023-06-25T11:27:44.287Z,35.27
2023-06-25T11:30:13.688Z,37.88
2023-06-25T11:32:42.546Z,40.64
2023-06-25T11:35:13.400Z,38.10
2023-06-25T11:37:47.989Z,39.94
2023-06-25T11:40:27.676Z,43.83
2023-06-25T11:42:57.554Z,46.54
2023-06-25T11:45:26.994Z,44.05
2023-06-25T11:47:57.077Z,44.60
2023-06-25T11:50:27.053Z,39.21
2023-06-25T11:52:58.320Z,38.96
2023-06-25T11:55:27.177Z,43.88
2023-06-25T11:57:56.013Z,38.94
2023-06-25T12:00:25.009Z,38.68
2023-06-25T12:02:53.901Z,38.80
2023-06-25T12:05:22.613Z,40.10
2023-06-25T12:07:51.404Z,42.76
2023-06-25T12:10:22.548Z,39.74
2023-06-25T12:12:53.840Z,46.81
2023-06-25T12:15:22.668Z,41.89
2023-06-25T12:17:51.489Z,42.27
2023-06-25T12:20:20.175Z,40.40
2023-06-25T12:22:49.175Z,43.32
2023-06-25T12:25:18.003Z,41.84
2023-06-25T12:27:48.002Z,37.67
2023-06-25T12:30:17.002Z,39.86
2023-06-25T12:32:45.702Z,35.24
2023-06-25T12:35:14.379Z,38.71
2023-06-25T12:37:42.988Z,37.88
2023-06-25T12:40:13.466Z,35.60
2023-06-25T12:42:42.210Z,38.51
2023-06-25T12:45:12.583Z,35.33
2023-06-25T12:47:41.463Z,37.14
2023-06-25T12:50:12.215Z,35.65
2023-06-25T12:52:40.964Z,35.91
2023-06-25T12:55:10.981Z,38.96
2023-06-25T12:57:39.958Z,34.87
2023-06-25T13:00:17.495Z,36.86
2023-06-25T13:02:53.341Z,35.83
2023-06-25T13:05:22.366Z,34.31
2023-06-25T13:07:50.998Z,34.02
2023-06-25T13:10:19.951Z,33.30
2023-06-25T13:12:48.684Z,35.55
2023-06-25T13:15:18.683Z,36.80
2023-06-25T13:17:47.294Z,39.04
2023-06-25T13:20:16.469Z,32.39
2023-06-25T13:22:45.445Z,32.23
2023-06-25T13:25:14.278Z,33.18
2023-06-25T13:27:45.038Z,32.23
2023-06-25T13:30:14.893Z,31.75
2023-06-25T13:32:45.172Z,31.26
2023-06-25T13:35:13.845Z,31.57
2023-06-25T13:37:43.122Z,31.74
2023-06-25T13:40:12.411Z,32.43
2023-06-25T13:42:41.365Z,32.81
2023-06-25T13:45:10.875Z,34.08
2023-06-25T13:47:40.154Z,32.89
2023-06-25T13:50:11.257Z,33.25
2023-06-25T13:52:39.999Z,35.18
2023-06-25T13:55:09.086Z,37.59
2023-06-25T13:57:38.007Z,35.22
2023-06-25T14:00:08.358Z,36.55
2023-06-25T14:02:40.873Z,34.57
2023-06-25T14:05:14.646Z,32.20
2023-06-25T14:07:43.524Z,32.47
2023-06-25T14:10:12.556Z,31.97
2023-06-25T14:12:41.399Z,32.80
2023-06-25T14:15:11.630Z,32.83
2023-06-25T14:17:40.264Z,34.28
2023-06-25T14:20:09.506Z,33.02
2023-06-25T14:22:40.386Z,34.28
2023-06-25T14:25:09.501Z,35.40
2023-06-25T14:27:38.325Z,35.47
2023-06-25T14:30:09.714Z,36.03
2023-06-25T14:32:38.559Z,36.70
2023-06-25T14:35:08.137Z,36.90
2023-06-25T14:37:36.770Z,38.23
2023-06-25T14:40:08.397Z,38.72
2023-06-25T14:42:37.421Z,39.52
2023-06-25T14:45:07.112Z,38.96
2023-06-25T14:47:37.455Z,40.00
2023-06-25T14:50:07.286Z,37.66
2023-06-25T14:52:36.399Z,37.66
2023-06-25T14:55:07.528Z,37.74
2023-06-25T14:57:36.251Z,36.01
2023-06-25T15:00:06.099Z,38.58
2023-06-25T15:02:36.292Z,38.26
2023-06-25T15:05:05.513Z,36.94
2023-06-25T15:07:34.208Z,37.15
2023-06-25T15:10:02.921Z,37.05
2023-06-25T15:12:33.044Z,39.57
2023-06-25T15:15:01.853Z,36.51
2023-06-25T15:17:30.652Z,37.42
2023-06-25T15:19:59.633Z,39.07
2023-06-25T15:22:28.487Z,40.19
2023-06-25T15:24:57.273Z,39.30
2023-06-25T15:27:26.055Z,38.25
2023-06-25T15:29:56.225Z,40.13
2023-06-25T15:32:24.951Z,41.36
2023-06-25T15:34:53.615Z,40.83
2023-06-25T15:37:22.289Z,39.01
2023-06-25T15:39:51.100Z,39.10
2023-06-25T15:42:19.700Z,38.74
2023-06-25T15:44:48.444Z,36.52
2023-06-25T15:47:18.737Z,38.58
2023-06-25T15:49:47.684Z,41.43
2023-06-25T15:52:16.533Z,42.45
2023-06-25T15:54:45.378Z,40.16
2023-06-25T15:57:14.249Z,38.82
2023-06-25T15:59:42.957Z,38.80
2023-06-25T16:02:12.173Z,38.66
2023-06-25T16:04:42.312Z,38.87
2023-06-25T16:07:11.158Z,38.94
2023-06-25T16:09:39.917Z,38.67
2023-06-25T16:12:09.598Z,37.94
2023-06-25T16:14:38.286Z,39.78
2023-06-25T16:17:06.992Z,39.28
2023-06-25T16:22:10.983Z,35.64
2023-06-25T16:24:40.031Z,38.33
2023-06-25T16:27:08.849Z,37.10
2023-06-25T16:29:37.538Z,37.70
2023-06-25T16:32:06.988Z,37.51
2023-06-25T16:34:36.621Z,40.52
2023-06-25T16:37:05.701Z,41.93
2023-06-25T16:39:36.052Z,42.35
2023-06-25T16:42:05.432Z,41.18
2023-06-25T16:44:34.070Z,39.44
2023-06-25T16:47:03.335Z,41.16
2023-06-25T16:49:32.374Z,39.62
2023-06-25T16:52:01.245Z,41.98
2023-06-25T16:54:30.063Z,41.35
2023-06-25T16:57:00.456Z,41.75
2023-06-25T16:59:29.110Z,41.70
2023-06-25T17:02:00.985Z,46.33
2023-06-25T17:04:29.702Z,42.17
2023-06-25T17:06:58.586Z,40.95
2023-06-25T17:09:27.392Z,40.42
2023-06-25T17:11:56.212Z,40.84
2023-06-25T17:14:26.909Z,39.83
2023-06-25T17:16:55.736Z,41.15
2023-06-25T17:19:24.594Z,39.38
2023-06-25T17:21:53.512Z,39.72
2023-06-25T17:24:22.324Z,39.71
2023-06-25T17:26:52.888Z,40.05
2023-06-25T17:29:21.922Z,41.11
2023-06-25T17:31:52.084Z,42.75
2023-06-25T17:34:20.821Z,45.55
2023-06-25T17:36:49.613Z,47.97
2023-06-25T17:39:18.629Z,49.17
2023-06-25T17:41:47.516Z,51.58
2023-06-25T17:44:16.521Z,56.25
2023-06-25T17:46:45.785Z,53.41
2023-06-25T17:49:16.454Z,49.17
2023-06-25T17:51:45.037Z,47.46
2023-06-25T17:54:13.942Z,49.89
2023-06-25T17:56:42.651Z,49.97
2023-06-25T17:59:12.067Z,49.96
2023-06-25T18:01:41.214Z,49.84
2023-06-25T18:04:10.144Z,50.56
2023-06-25T18:06:40.284Z,51.19
2023-06-25T18:09:08.952Z,52.75
2023-06-25T18:11:37.571Z,55.69
2023-06-25T18:14:06.496Z,56.77
2023-06-25T18:16:35.328Z,57.02
2023-06-25T18:19:04.277Z,58.51
2023-06-25T18:21:33.120Z,60.37
2023-06-25T18:24:03.280Z,62.29
2023-06-25T18:26:31.979Z,62.51
2023-06-25T18:29:00.632Z,65.13
2023-06-25T18:31:29.534Z,70.26
2023-06-25T18:33:58.381Z,73.26
2023-06-25T18:36:27.112Z,72.67
2023-06-25T18:38:55.776Z,75.48
2023-06-25T18:41:25.784Z,80.52
2023-06-25T18:43:55.322Z,85.32
2023-06-25T18:46:24.089Z,87.71
2023-06-25T18:48:52.965Z,91.24
2023-06-25T18:51:21.634Z,93.59
2023-06-25T18:53:50.262Z,94.84
2023-06-25T18:56:18.907Z,97.03
2023-06-25T18:58:48.887Z,100.00
2023-06-25T19:01:17.685Z,100.00
2023-06-25T19:03:46.409Z,100.00
2023-06-25T19:06:15.340Z,100.00
2023-06-25T19:08:44.044Z,100.00
2023-06-25T19:11:12.821Z,100.00
2023-06-25T19:13:41.396Z,100.00
2023-06-25T19:16:11.362Z,100.00
2023-06-25T19:18:40.418Z,100.00
2023-06-25T19:21:09.443Z,100.00
2023-06-25T19:23:42.401Z,100.00
2023-06-25T19:26:11.227Z,100.00
2023-06-25T19:28:39.818Z,100.00
2023-06-25T19:31:08.503Z,100.00
2023-06-25T19:33:38.704Z,100.00
2023-06-25T19:36:08.010Z,100.00
2023-06-25T19:38:36.780Z,100.00
2023-06-25T19:41:05.621Z,100.00
2023-06-25T19:43:34.521Z,100.00
2023-06-25T19:46:04.533Z,100.00
2023-06-25T19:48:33.413Z,100.00
2023-06-25T19:51:03.970Z,100.00
2023-06-25T19:53:34.560Z,100.00
2023-06-25T19:56:03.503Z,100.00
2023-06-25T19:58:32.168Z,100.00
2023-06-25T20:01:01.257Z,100.00
2023-06-25T20:03:30.293Z,100.00
2023-06-25T20:06:01.371Z,100.00
2023-06-25T20:08:31.589Z,100.00
2023-06-25T20:11:00.453Z,100.00
2023-06-25T20:13:29.459Z,100.00
2023-06-25T20:15:58.389Z,100.00
2023-06-25T20:18:27.147Z,100.00
2023-06-25T20:20:55.982Z,100.00
2023-06-25T20:23:24.728Z,100.00
2023-06-25T20:25:55.113Z,100.00
2023-06-25T20:28:23.807Z,100.00
2023-06-25T20:30:52.574Z,100.00
2023-06-25T20:33:24.323Z,100.00
2023-06-25T20:35:53.045Z,100.00
2023-06-25T20:38:21.964Z,100.00
2023-06-25T20:40:50.705Z,100.00
2023-06-25T20:43:20.875Z,100.00
2023-06-25T20:45:50.740Z,100.00
2023-06-25T20:48:19.381Z,100.00
2023-06-25T20:50:48.399Z,100.00
2023-06-25T20:53:17.135Z,100.00
2023-06-25T20:55:45.768Z,100.00
2023-06-25T20:58:14.422Z,100.00
2023-06-25T21:00:45.329Z,100.00
2023-06-25T21:03:14.158Z,100.00
2023-06-25T21:05:44.322Z,100.00
2023-06-25T21:08:13.147Z,100.00
2023-06-25T21:10:41.702Z,100.00
2023-06-25T21:13:10.330Z,100.00
2023-06-25T21:15:39.226Z,100.00
2023-06-25T21:18:09.492Z,100.00
2023-06-25T21:20:38.609Z,100.00
2023-06-25T21:23:07.455Z,100.00
2023-06-25T21:25:36.067Z,100.00
2023-06-25T21:28:06.507Z,100.00
2023-06-25T21:30:36.337Z,100.00
2023-06-25T21:33:05.468Z,100.00
2023-06-25T21:35:35.498Z,100.00
2023-06-25T21:38:04.215Z,100.00
2023-06-25T21:40:33.008Z,100.00
2023-06-25T21:43:01.830Z,100.00
2023-06-25T21:45:30.475Z,100.00
2023-06-25T21:47:59.185Z,100.00
2023-06-25T21:50:28.105Z,100.00
2023-06-25T21:52:58.154Z,100.00
2023-06-25T21:55:26.778Z,100.00
2023-06-25T21:57:55.461Z,100.00
2023-06-25T22:00:24.122Z,100.00
2023-06-25T22:02:52.961Z,100.00
2023-06-25T22:05:21.651Z,100.00
2023-06-25T22:07:50.283Z,100.00
2023-06-25T22:10:20.422Z,100.00
2023-06-25T22:12:49.129Z,100.00
2023-06-25T22:15:18.475Z,100.00
2023-06-25T22:17:50.528Z,100.00
2023-06-25T22:20:19.263Z,100.00
2023-06-25T22:22:47.937Z,100.00
2023-06-25T22:25:16.892Z,100.00
2023-06-25T22:27:52.492Z,100.00
2023-06-25T22:30:21.904Z,100.00
2023-06-25T22:32:50.704Z,100.00
2023-06-25T22:35:19.575Z,100.00
2023-06-25T22:37:48.180Z,100.00
2023-06-25T22:40:17.156Z,100.00
2023-06-25T22:42:47.145Z,100.00
2023-06-25T22:45:15.909Z,100.00
2023-06-25T22:47:44.810Z,100.00
2023-06-25T22:50:13.721Z,100.00
2023-06-25T22:52:42.642Z,100.00
2023-06-25T22:55:11.585Z,100.00
2023-06-25T22:57:40.230Z,100.00
2023-06-25T23:00:12.849Z,100.00
2023-06-25T23:02:41.734Z,100.00
2023-06-25T23:05:12.871Z,100.00
2023-06-25T23:07:42.685Z,100.00
2023-06-25T23:10:12.967Z,100.00
2023-06-25T23:12:41.762Z,100.00
2023-06-25T23:15:12.478Z,100.00
2023-06-25T23:17:41.506Z,100.00
2023-06-25T23:20:11.372Z,100.00
2023-06-25T23:22:45.880Z,100.00
2023-06-25T23:25:28.450Z,100.00
2023-06-25T23:27:59.117Z,100.00
2023-06-25T23:30:29.643Z,100.00
2023-06-25T23:32:59.378Z,100.00
2023-06-25T23:35:28.546Z,100.00
2023-06-25T23:37:57.217Z,100.00
2023-06-25T23:40:26.261Z,100.00
2023-06-25T23:42:55.684Z,100.00
2023-06-25T23:45:25.289Z,100.00
2023-06-25T23:47:57.079Z,100.00
2023-06-25T23:50:26.019Z,100.00
2023-06-25T23:52:54.823Z,100.00
2023-06-25T23:55:23.449Z,100.00
2023-06-25T23:57:52.195Z,100.00
